04:09
Airports
Links
Donate
Help keep this website running!
PayPal
Bitcoin
METAR
LICJ 210350Z 19009KT 9999 BKN040 15/09 Q1021
Current Weather Conditions at LICJ
VFR 03:50:00 21-11-17
Altimeter:30.15 hg
Temp:15.0°c 59°f
Dew point:9.0°c 48°f
Wind:9 knots, 10.4 mph, 5 m/s, from 190°
Visibility:6.21 statute miles
4000(BKN) Broken
Past METAR reports
VFR 03:20:00 21-11-17
Altimeter:30.12 hg
Temp:15.0°c 59°f
Dew point:9.0°c 48°f
Wind:9 knots, 10.4 mph, 5 m/s, from 200°
Visibility:6.21 statute miles
4000(BKN) Broken
LICJ 210320Z 20009KT 9999 BKN040 15/09 Q1020
VFR 02:50:00 21-11-17
Altimeter:30.15 hg
Temp:15.0°c 59°f
Dew point:9.0°c 48°f
Wind:6 knots, 6.9 mph, 3 m/s, from 190°
Visibility:6.21 statute miles
4000(SCT) Scattered
LICJ 210250Z 19006KT 9999 SCT040 15/09 Q1021
VFR 02:20:00 21-11-17
Altimeter:30.15 hg
Temp:15.0°c 59°f
Dew point:9.0°c 48°f
Wind:7 knots, 8.1 mph, 4 m/s, from 180°
Visibility:6.21 statute miles
4000(SCT) Scattered
LICJ 210220Z 18007KT 150V210 9999 SCT040 15/09 Q1021
VFR 01:50:00 21-11-17
Altimeter:30.15 hg
Temp:14.0°c 57°f
Dew point:9.0°c 48°f
Wind:7 knots, 8.1 mph, 4 m/s, from 190°
Visibility:6.21 statute miles
3000(FEW) A few
LICJ 210150Z 19007KT 9999 FEW030 14/09 Q1021
VFR 01:20:00 21-11-17
Altimeter:30.15 hg
Temp:14.0°c 57°f
Dew point:8.0°c 46°f
Wind:5 knots, 5.8 mph, 3 m/s,
Variable direction
Visibility:6.21 statute miles
(CAVOK)
LICJ 210120Z VRB05KT CAVOK 14/08 Q1021
VFR 00:50:00 21-11-17
Altimeter:30.15 hg
Temp:14.0°c 57°f
Dew point:8.0°c 46°f
Wind:5 knots, 5.8 mph, 3 m/s, from 180°
Visibility:6.21 statute miles
(CAVOK)
LICJ 210050Z 18005KT 150V210 CAVOK 14/08 Q1021
TAF
TAF LICJ 202300Z 2100/2124 20008KT 9999 SCT030 BECMG 2110/2112 28012KT
Forecast at LICJ
00:00 21-11-17 to 10:00 21-11-17
Wind:8 Knots from 200°
Visibility:6.21 statute miles
3000SCT Scattered
BECMG 10:00 21-11-17 to 00:00 22-11-17
Wind:12 Knots from 280°
Visibility:6.21 statute miles
3000SCT Scattered